aviador You're here:

KDDH Decoded Metar

BENNINGTON in VT, USA
Report Time2018-06-17 20:54:00
UTC Time2018-06-17 21:54:14
Flight Rules vfr VFR
WindCalm
Visibility9999 m
Phenomena:N/A
Clouds:N/A
Expected CloudBase > 7,600 ft AGL from Temp-Dew spread
CeilingNone
Temp29°C (ISA +16)
Dew Point10°C (31% RH)
Heat Index27.9°C
QNH1018 hPa
Density Alt2,589 ft
Elevation801 ft
Report Wrong Elevation
Raw Report
KDDH 172054Z AUTO 00000KT 10SM CLR 29/10 A3007 RMK AO2 SLP180
T02940100 56001=

Extra information for KDDH:More info

Metar Taf Metar & Taf Last 4 Metars F.Rules Stats Wind Profile Meteogram Temp Stats Airport Information Weather charts Add Link Nearby VenuesMetar ALERT Operation Metar Decoded Social comments

AIRNAV info for KDDH